sensor_id;sensor_type;location;lat;lon;timestamp;P1;durP1;ratioP1;P2;durP2;ratioP2
65461;SDS011;53236;43.666;18.444;2023-01-08T00:01:23;11.83;;;7.23;;
65461;SDS011;53236;43.666;18.444;2023-01-08T00:03:49;12.00;;;7.40;;
65461;SDS011;53236;43.666;18.444;2023-01-08T00:06:15;8.73;;;5.27;;
65461;SDS011;53236;43.666;18.444;2023-01-08T00:08:43;10.93;;;6.20;;
65461;SDS011;53236;43.666;18.444;2023-01-08T00:11:09;19.33;;;11.20;;
65461;SDS011;53236;43.666;18.444;2023-01-08T00:13:35;34.17;;;18.73;;
65461;SDS011;53236;43.666;18.444;2023-01-08T00:16:05;31.87;;;18.97;;
65461;SDS011;53236;43.666;18.444;2023-01-08T00:18:33;29.10;;;16.93;;
65461;SDS011;53236;43.666;18.444;2023-01-08T00:20:59;17.13;;;9.70;;
65461;SDS011;53236;43.666;18.444;2023-01-08T00:23:25;8.97;;;5.20;;
65461;SDS011;53236;43.666;18.444;2023-01-08T00:25:51;6.40;;;3.60;;
65461;SDS011;53236;43.666;18.444;2023-01-08T00:28:17;5.07;;;2.93;;
65461;SDS011;53236;43.666;18.444;2023-01-08T00:30:44;5.20;;;3.37;;
65461;SDS011;53236;43.666;18.444;2023-01-08T00:33:11;5.63;;;3.20;;
65461;SDS011;53236;43.666;18.444;2023-01-08T00:35:37;4.63;;;2.63;;
65461;SDS011;53236;43.666;18.444;2023-01-08T00:38:03;7.10;;;4.20;;
65461;SDS011;53236;43.666;18.444;2023-01-08T00:40:29;6.23;;;3.70;;
65461;SDS011;53236;43.666;18.444;2023-01-08T00:42:54;7.23;;;4.30;;
65461;SDS011;53236;43.666;18.444;2023-01-08T00:45:20;9.70;;;5.97;;
65461;SDS011;53236;43.666;18.444;2023-01-08T00:47:45;20.57;;;10.73;;
65461;SDS011;53236;43.666;18.444;2023-01-08T00:50:11;25.27;;;14.57;;
65461;SDS011;53236;43.666;18.444;2023-01-08T00:52:37;21.53;;;12.27;;
65461;SDS011;53236;43.666;18.444;2023-01-08T00:55:03;12.70;;;6.13;;
65461;SDS011;53236;43.666;18.444;2023-01-08T00:57:35;7.33;;;3.87;;
65461;SDS011;53236;43.666;18.444;2023-01-08T01:00:06;4.90;;;3.00;;
65461;SDS011;53236;43.666;18.444;2023-01-08T01:02:37;5.50;;;3.63;;
65461;SDS011;53236;43.666;18.444;2023-01-08T01:05:03;12.90;;;6.83;;
65461;SDS011;53236;43.666;18.444;2023-01-08T01:07:30;23.30;;;12.17;;
65461;SDS011;53236;43.666;18.444;2023-01-08T01:09:57;27.90;;;16.20;;
65461;SDS011;53236;43.666;18.444;2023-01-08T01:12:23;37.33;;;21.07;;
65461;SDS011;53236;43.666;18.444;2023-01-08T01:14:48;36.40;;;20.10;;
65461;SDS011;53236;43.666;18.444;2023-01-08T01:17:14;41.97;;;21.67;;
65461;SDS011;53236;43.666;18.444;2023-01-08T01:19:40;26.90;;;13.93;;
65461;SDS011;53236;43.666;18.444;2023-01-08T01:22:06;32.27;;;18.27;;
65461;SDS011;53236;43.666;18.444;2023-01-08T01:24:32;25.47;;;14.13;;
65461;SDS011;53236;43.666;18.444;2023-01-08T01:26:57;34.07;;;19.03;;
65461;SDS011;53236;43.666;18.444;2023-01-08T01:29:23;52.33;;;27.17;;
65461;SDS011;53236;43.666;18.444;2023-01-08T01:31:50;52.53;;;25.97;;
65461;SDS011;53236;43.666;18.444;2023-01-08T01:34:15;16.70;;;9.90;;
65461;SDS011;53236;43.666;18.444;2023-01-08T01:36:41;15.67;;;9.10;;
65461;SDS011;53236;43.666;18.444;2023-01-08T01:39:07;11.83;;;7.00;;
65461;SDS011;53236;43.666;18.444;2023-01-08T01:41:37;10.83;;;6.17;;
65461;SDS011;53236;43.666;18.444;2023-01-08T01:47:19;10.37;;;6.17;;
65461;SDS011;53236;43.666;18.444;2023-01-08T01:49:55;11.50;;;6.00;;
65461;SDS011;53236;43.666;18.444;2023-01-08T01:52:34;12.60;;;6.03;;
65461;SDS011;53236;43.666;18.444;2023-01-08T01:55:05;7.17;;;3.80;;
65461;SDS011;53236;43.666;18.444;2023-01-08T01:57:33;12.60;;;6.80;;
65461;SDS011;53236;43.666;18.444;2023-01-08T02:00:00;23.97;;;12.03;;
65461;SDS011;53236;43.666;18.444;2023-01-08T02:02:30;24.43;;;12.33;;
65461;SDS011;53236;43.666;18.444;2023-01-08T02:04:57;23.17;;;12.17;;
65461;SDS011;53236;43.666;18.444;2023-01-08T02:12:23;7.53;;;4.47;;
65461;SDS011;53236;43.666;18.444;2023-01-08T02:15:04;8.90;;;5.17;;
65461;SDS011;53236;43.666;18.444;2023-01-08T02:17:34;7.70;;;4.93;;
65461;SDS011;53236;43.666;18.444;2023-01-08T02:28:17;4.37;;;2.60;;
65461;SDS011;53236;43.666;18.444;2023-01-08T02:30:44;5.43;;;3.10;;
65461;SDS011;53236;43.666;18.444;2023-01-08T02:33:10;10.97;;;5.10;;
65461;SDS011;53236;43.666;18.444;2023-01-08T02:35:40;8.30;;;4.97;;
65461;SDS011;53236;43.666;18.444;2023-01-08T02:38:12;12.90;;;7.23;;
65461;SDS011;53236;43.666;18.444;2023-01-08T02:43:20;16.53;;;9.43;;
65461;SDS011;53236;43.666;18.444;2023-01-08T02:45:56;4.97;;;2.93;;
65461;SDS011;53236;43.666;18.444;2023-01-08T02:48:30;11.57;;;7.67;;
65461;SDS011;53236;43.666;18.444;2023-01-08T02:53:33;11.87;;;7.47;;
65461;SDS011;53236;43.666;18.444;2023-01-08T02:56:20;12.67;;;7.23;;
65461;SDS011;53236;43.666;18.444;2023-01-08T02:58:52;16.27;;;10.07;;
65461;SDS011;53236;43.666;18.444;2023-01-08T03:01:20;10.03;;;6.20;;
65461;SDS011;53236;43.666;18.444;2023-01-08T03:03:55;10.70;;;6.27;;
65461;SDS011;53236;43.666;18.444;2023-01-08T03:06:22;10.27;;;6.03;;
65461;SDS011;53236;43.666;18.444;2023-01-08T03:08:50;10.73;;;6.30;;
65461;SDS011;53236;43.666;18.444;2023-01-08T03:11:21;9.37;;;5.33;;
65461;SDS011;53236;43.666;18.444;2023-01-08T03:16:32;12.47;;;6.80;;
65461;SDS011;53236;43.666;18.444;2023-01-08T03:19:08;13.60;;;7.13;;
65461;SDS011;53236;43.666;18.444;2023-01-08T03:21:38;15.73;;;7.93;;
65461;SDS011;53236;43.666;18.444;2023-01-08T03:24:08;11.67;;;6.97;;
65461;SDS011;53236;43.666;18.444;2023-01-08T03:26:41;10.43;;;6.03;;
65461;SDS011;53236;43.666;18.444;2023-01-08T03:29:10;7.40;;;4.33;;
65461;SDS011;53236;43.666;18.444;2023-01-08T03:31:41;8.37;;;4.33;;
65461;SDS011;53236;43.666;18.444;2023-01-08T03:34:09;5.87;;;3.20;;
65461;SDS011;53236;43.666;18.444;2023-01-08T03:36:37;6.90;;;3.40;;
65461;SDS011;53236;43.666;18.444;2023-01-08T03:41:59;4.73;;;2.43;;
65461;SDS011;53236;43.666;18.444;2023-01-08T03:44:28;5.07;;;2.60;;
65461;SDS011;53236;43.666;18.444;2023-01-08T03:46:54;4.83;;;1.90;;
65461;SDS011;53236;43.666;18.444;2023-01-08T03:49:22;4.23;;;2.40;;
65461;SDS011;53236;43.666;18.444;2023-01-08T03:51:50;3.40;;;2.00;;
65461;SDS011;53236;43.666;18.444;2023-01-08T03:54:20;5.30;;;3.50;;
65461;SDS011;53236;43.666;18.444;2023-01-08T03:56:51;5.22;;;3.17;;
65461;SDS011;53236;43.666;18.444;2023-01-08T03:59:17;6.27;;;3.27;;
65461;SDS011;53236;43.666;18.444;2023-01-08T04:01:42;5.87;;;3.33;;
65461;SDS011;53236;43.666;18.444;2023-01-08T04:04:09;7.77;;;3.90;;
65461;SDS011;53236;43.666;18.444;2023-01-08T04:06:35;4.53;;;2.77;;
65461;SDS011;53236;43.666;18.444;2023-01-08T04:09:01;5.37;;;3.13;;
65461;SDS011;53236;43.666;18.444;2023-01-08T04:11:27;4.47;;;2.50;;
65461;SDS011;53236;43.666;18.444;2023-01-08T04:13:53;6.13;;;3.70;;
65461;SDS011;53236;43.666;18.444;2023-01-08T04:16:19;5.57;;;3.17;;
65461;SDS011;53236;43.666;18.444;2023-01-08T04:18:45;4.80;;;2.63;;
65461;SDS011;53236;43.666;18.444;2023-01-08T04:21:11;4.47;;;2.60;;
65461;SDS011;53236;43.666;18.444;2023-01-08T04:23:36;4.93;;;2.80;;
65461;SDS011;53236;43.666;18.444;2023-01-08T04:26:03;4.73;;;2.40;;
65461;SDS011;53236;43.666;18.444;2023-01-08T04:28:29;4.03;;;2.30;;
65461;SDS011;53236;43.666;18.444;2023-01-08T04:30:55;6.10;;;2.77;;
65461;SDS011;53236;43.666;18.444;2023-01-08T04:33:21;4.67;;;2.40;;
65461;SDS011;53236;43.666;18.444;2023-01-08T04:35:46;4.77;;;1.93;;
65461;SDS011;53236;43.666;18.444;2023-01-08T04:38:12;3.13;;;1.80;;
65461;SDS011;53236;43.666;18.444;2023-01-08T04:40:38;3.20;;;1.77;;
65461;SDS011;53236;43.666;18.444;2023-01-08T04:43:03;6.13;;;3.07;;
65461;SDS011;53236;43.666;18.444;2023-01-08T04:45:29;4.80;;;2.37;;
65461;SDS011;53236;43.666;18.444;2023-01-08T04:47:55;6.50;;;3.17;;
65461;SDS011;53236;43.666;18.444;2023-01-08T04:50:21;6.37;;;3.37;;
65461;SDS011;53236;43.666;18.444;2023-01-08T04:52:47;5.93;;;3.20;;
65461;SDS011;53236;43.666;18.444;2023-01-08T04:55:13;4.40;;;2.47;;
65461;SDS011;53236;43.666;18.444;2023-01-08T04:57:39;5.07;;;2.70;;
65461;SDS011;53236;43.666;18.444;2023-01-08T05:00:05;4.77;;;2.90;;
65461;SDS011;53236;43.666;18.444;2023-01-08T05:02:31;9.00;;;4.80;;
65461;SDS011;53236;43.666;18.444;2023-01-08T05:04:57;5.93;;;3.10;;
65461;SDS011;53236;43.666;18.444;2023-01-08T05:07:22;5.50;;;3.10;;
65461;SDS011;53236;43.666;18.444;2023-01-08T05:09:48;7.57;;;3.73;;
65461;SDS011;53236;43.666;18.444;2023-01-08T05:12:14;5.77;;;3.10;;
65461;SDS011;53236;43.666;18.444;2023-01-08T05:14:39;7.13;;;3.40;;
65461;SDS011;53236;43.666;18.444;2023-01-08T05:17:05;17.47;;;11.83;;
65461;SDS011;53236;43.666;18.444;2023-01-08T05:19:31;11.00;;;6.33;;
65461;SDS011;53236;43.666;18.444;2023-01-08T05:21:56;6.50;;;3.80;;
65461;SDS011;53236;43.666;18.444;2023-01-08T05:24:22;5.40;;;3.40;;
65461;SDS011;53236;43.666;18.444;2023-01-08T05:26:48;6.07;;;3.13;;
65461;SDS011;53236;43.666;18.444;2023-01-08T05:29:13;4.77;;;3.00;;
65461;SDS011;53236;43.666;18.444;2023-01-08T05:31:40;5.17;;;3.30;;
65461;SDS011;53236;43.666;18.444;2023-01-08T05:34:05;5.33;;;3.40;;
65461;SDS011;53236;43.666;18.444;2023-01-08T05:36:31;5.10;;;2.53;;
65461;SDS011;53236;43.666;18.444;2023-01-08T05:38:57;6.47;;;3.50;;
65461;SDS011;53236;43.666;18.444;2023-01-08T05:41:22;5.03;;;2.70;;
65461;SDS011;53236;43.666;18.444;2023-01-08T05:43:48;6.17;;;3.30;;
65461;SDS011;53236;43.666;18.444;2023-01-08T05:46:14;4.63;;;2.87;;
65461;SDS011;53236;43.666;18.444;2023-01-08T05:48:39;5.73;;;2.33;;
65461;SDS011;53236;43.666;18.444;2023-01-08T05:51:05;11.10;;;5.47;;
65461;SDS011;53236;43.666;18.444;2023-01-08T05:53:31;10.23;;;4.57;;
65461;SDS011;53236;43.666;18.444;2023-01-08T05:56:01;9.10;;;4.67;;
65461;SDS011;53236;43.666;18.444;2023-01-08T05:58:28;8.00;;;4.43;;
65461;SDS011;53236;43.666;18.444;2023-01-08T06:00:59;9.90;;;5.57;;
65461;SDS011;53236;43.666;18.444;2023-01-08T06:03:28;10.97;;;6.00;;
65461;SDS011;53236;43.666;18.444;2023-01-08T06:06:00;13.97;;;8.47;;
65461;SDS011;53236;43.666;18.444;2023-01-08T06:08:27;31.00;;;16.50;;
65461;SDS011;53236;43.666;18.444;2023-01-08T06:10:54;23.00;;;14.10;;
65461;SDS011;53236;43.666;18.444;2023-01-08T06:13:23;119.30;;;56.47;;
65461;SDS011;53236;43.666;18.444;2023-01-08T06:15:48;24.07;;;16.23;;
65461;SDS011;53236;43.666;18.444;2023-01-08T06:18:14;22.00;;;12.53;;
65461;SDS011;53236;43.666;18.444;2023-01-08T06:20:40;10.03;;;6.60;;
65461;SDS011;53236;43.666;18.444;2023-01-08T06:23:05;31.40;;;19.07;;
65461;SDS011;53236;43.666;18.444;2023-01-08T06:25:32;27.77;;;18.73;;
65461;SDS011;53236;43.666;18.444;2023-01-08T06:27:58;56.97;;;33.27;;
65461;SDS011;53236;43.666;18.444;2023-01-08T06:30:24;34.50;;;21.17;;
65461;SDS011;53236;43.666;18.444;2023-01-08T06:32:53;14.57;;;9.20;;
65461;SDS011;53236;43.666;18.444;2023-01-08T06:35:20;13.60;;;8.77;;
65461;SDS011;53236;43.666;18.444;2023-01-08T06:37:46;34.50;;;22.50;;
65461;SDS011;53236;43.666;18.444;2023-01-08T06:40:12;117.43;;;65.23;;
65461;SDS011;53236;43.666;18.444;2023-01-08T06:42:37;208.83;;;113.30;;
65461;SDS011;53236;43.666;18.444;2023-01-08T06:45:04;99.40;;;58.23;;
65461;SDS011;53236;43.666;18.444;2023-01-08T06:47:32;63.63;;;41.27;;
65461;SDS011;53236;43.666;18.444;2023-01-08T06:49:57;42.33;;;29.10;;
65461;SDS011;53236;43.666;18.444;2023-01-08T06:52:23;94.60;;;58.37;;
65461;SDS011;53236;43.666;18.444;2023-01-08T06:54:49;43.17;;;30.23;;
65461;SDS011;53236;43.666;18.444;2023-01-08T06:57:15;45.77;;;30.50;;
65461;SDS011;53236;43.666;18.444;2023-01-08T06:59:41;55.03;;;32.80;;
65461;SDS011;53236;43.666;18.444;2023-01-08T07:02:09;78.00;;;45.93;;
65461;SDS011;53236;43.666;18.444;2023-01-08T07:04:37;54.27;;;35.23;;
65461;SDS011;53236;43.666;18.444;2023-01-08T07:07:03;55.90;;;35.10;;
65461;SDS011;53236;43.666;18.444;2023-01-08T07:09:29;43.30;;;26.57;;
65461;SDS011;53236;43.666;18.444;2023-01-08T07:11:54;63.77;;;41.83;;
65461;SDS011;53236;43.666;18.444;2023-01-08T07:14:20;56.90;;;37.07;;
65461;SDS011;53236;43.666;18.444;2023-01-08T07:16:46;54.83;;;35.37;;
65461;SDS011;53236;43.666;18.444;2023-01-08T07:19:11;82.50;;;51.87;;
65461;SDS011;53236;43.666;18.444;2023-01-08T07:21:37;31.50;;;21.30;;
65461;SDS011;53236;43.666;18.444;2023-01-08T07:24:03;35.13;;;22.90;;
65461;SDS011;53236;43.666;18.444;2023-01-08T07:26:30;31.07;;;22.00;;
65461;SDS011;53236;43.666;18.444;2023-01-08T07:28:55;33.57;;;23.30;;
65461;SDS011;53236;43.666;18.444;2023-01-08T07:31:21;34.77;;;23.60;;
65461;SDS011;53236;43.666;18.444;2023-01-08T07:33:47;33.37;;;24.33;;
65461;SDS011;53236;43.666;18.444;2023-01-08T07:36:12;35.93;;;25.87;;
65461;SDS011;53236;43.666;18.444;2023-01-08T07:38:39;79.77;;;43.07;;
65461;SDS011;53236;43.666;18.444;2023-01-08T07:41:06;42.70;;;25.97;;
65461;SDS011;53236;43.666;18.444;2023-01-08T07:43:31;33.77;;;21.93;;
65461;SDS011;53236;43.666;18.444;2023-01-08T07:46:00;14.97;;;8.37;;
65461;SDS011;53236;43.666;18.444;2023-01-08T07:48:27;17.30;;;11.18;;
65461;SDS011;53236;43.666;18.444;2023-01-08T07:50:53;12.65;;;8.43;;
65461;SDS011;53236;43.666;18.444;2023-01-08T07:53:19;12.00;;;7.78;;
65461;SDS011;53236;43.666;18.444;2023-01-08T07:55:44;15.68;;;10.00;;
65461;SDS011;53236;43.666;18.444;2023-01-08T07:58:12;24.70;;;15.90;;
65461;SDS011;53236;43.666;18.444;2023-01-08T08:00:39;29.60;;;22.08;;
65461;SDS011;53236;43.666;18.444;2023-01-08T08:03:05;27.50;;;18.90;;
65461;SDS011;53236;43.666;18.444;2023-01-08T08:05:33;35.72;;;29.13;;
65461;SDS011;53236;43.666;18.444;2023-01-08T08:07:59;29.13;;;21.38;;
65461;SDS011;53236;43.666;18.444;2023-01-08T08:10:25;26.05;;;19.17;;
65461;SDS011;53236;43.666;18.444;2023-01-08T08:12:51;30.13;;;22.65;;
65461;SDS011;53236;43.666;18.444;2023-01-08T08:15:17;26.88;;;17.02;;
65461;SDS011;53236;43.666;18.444;2023-01-08T08:17:43;18.58;;;13.60;;
65461;SDS011;53236;43.666;18.444;2023-01-08T08:20:10;47.30;;;37.03;;
65461;SDS011;53236;43.666;18.444;2023-01-08T08:22:36;24.88;;;20.23;;
65461;SDS011;53236;43.666;18.444;2023-01-08T08:25:02;19.85;;;16.10;;
65461;SDS011;53236;43.666;18.444;2023-01-08T08:27:27;10.70;;;8.80;;
65461;SDS011;53236;43.666;18.444;2023-01-08T08:29:54;9.52;;;7.38;;
65461;SDS011;53236;43.666;18.444;2023-01-08T08:32:19;5.25;;;3.67;;
65461;SDS011;53236;43.666;18.444;2023-01-08T08:34:45;4.47;;;3.17;;
65461;SDS011;53236;43.666;18.444;2023-01-08T08:37:10;12.13;;;9.15;;
65461;SDS011;53236;43.666;18.444;2023-01-08T08:39:36;11.82;;;8.65;;
65461;SDS011;53236;43.666;18.444;2023-01-08T08:42:03;9.15;;;6.78;;
65461;SDS011;53236;43.666;18.444;2023-01-08T08:44:28;9.00;;;6.38;;
65461;SDS011;53236;43.666;18.444;2023-01-08T08:46:54;6.50;;;4.80;;
65461;SDS011;53236;43.666;18.444;2023-01-08T08:49:20;10.82;;;8.50;;
65461;SDS011;53236;43.666;18.444;2023-01-08T08:51:45;25.52;;;18.10;;
65461;SDS011;53236;43.666;18.444;2023-01-08T08:54:11;13.88;;;9.82;;
65461;SDS011;53236;43.666;18.444;2023-01-08T08:56:37;20.92;;;15.73;;
65461;SDS011;53236;43.666;18.444;2023-01-08T08:59:03;10.85;;;8.05;;
65461;SDS011;53236;43.666;18.444;2023-01-08T09:01:28;12.43;;;8.75;;
65461;SDS011;53236;43.666;18.444;2023-01-08T09:03:54;13.32;;;9.25;;
65461;SDS011;53236;43.666;18.444;2023-01-08T09:06:20;11.90;;;8.43;;
65461;SDS011;53236;43.666;18.444;2023-01-08T09:08:45;15.43;;;8.93;;
65461;SDS011;53236;43.666;18.444;2023-01-08T09:11:11;12.13;;;8.23;;
65461;SDS011;53236;43.666;18.444;2023-01-08T09:13:37;12.35;;;8.43;;
65461;SDS011;53236;43.666;18.444;2023-01-08T09:16:03;11.68;;;7.72;;
65461;SDS011;53236;43.666;18.444;2023-01-08T09:18:29;18.67;;;12.20;;
65461;SDS011;53236;43.666;18.444;2023-01-08T09:20:55;21.05;;;14.13;;
65461;SDS011;53236;43.666;18.444;2023-01-08T09:23:20;15.23;;;9.95;;
65461;SDS011;53236;43.666;18.444;2023-01-08T09:25:46;16.55;;;10.40;;
65461;SDS011;53236;43.666;18.444;2023-01-08T09:28:12;17.83;;;11.48;;
65461;SDS011;53236;43.666;18.444;2023-01-08T09:30:38;18.50;;;10.98;;
65461;SDS011;53236;43.666;18.444;2023-01-08T09:33:04;45.13;;;28.52;;
65461;SDS011;53236;43.666;18.444;2023-01-08T09:35:30;24.58;;;15.43;;
65461;SDS011;53236;43.666;18.444;2023-01-08T09:37:57;27.48;;;18.88;;
65461;SDS011;53236;43.666;18.444;2023-01-08T09:41:24;44.53;;;27.77;;
65461;SDS011;53236;43.666;18.444;2023-01-08T09:43:24;33.78;;;21.40;;
65461;SDS011;53236;43.666;18.444;2023-01-08T09:45:57;35.13;;;22.58;;
65461;SDS011;53236;43.666;18.444;2023-01-08T09:48:28;34.40;;;22.10;;
65461;SDS011;53236;43.666;18.444;2023-01-08T09:50:58;28.83;;;19.17;;
65461;SDS011;53236;43.666;18.444;2023-01-08T09:53:24;28.20;;;19.10;;
65461;SDS011;53236;43.666;18.444;2023-01-08T09:56:32;27.45;;;19.80;;
65461;SDS011;53236;43.666;18.444;2023-01-08T10:01:13;26.88;;;18.30;;
65461;SDS011;53236;43.666;18.444;2023-01-08T10:06:39;92.75;;;59.03;;
65461;SDS011;53236;43.666;18.444;2023-01-08T10:09:05;26.92;;;18.90;;
65461;SDS011;53236;43.666;18.444;2023-01-08T10:11:41;43.67;;;27.25;;
65461;SDS011;53236;43.666;18.444;2023-01-08T10:14:14;60.83;;;34.33;;
65461;SDS011;53236;43.666;18.444;2023-01-08T10:16:50;54.13;;;32.97;;
65461;SDS011;53236;43.666;18.444;2023-01-08T10:19:20;18.60;;;12.02;;
65461;SDS011;53236;43.666;18.444;2023-01-08T10:21:47;21.52;;;11.73;;
65461;SDS011;53236;43.666;18.444;2023-01-08T10:24:13;18.70;;;10.75;;
65461;SDS011;53236;43.666;18.444;2023-01-08T10:26:38;26.58;;;16.58;;
65461;SDS011;53236;43.666;18.444;2023-01-08T10:29:14;36.38;;;21.35;;
65461;SDS011;53236;43.666;18.444;2023-01-08T10:31:52;34.63;;;20.48;;
65461;SDS011;53236;43.666;18.444;2023-01-08T10:34:32;35.05;;;22.98;;
65461;SDS011;53236;43.666;18.444;2023-01-08T10:40:02;24.98;;;16.25;;
65461;SDS011;53236;43.666;18.444;2023-01-08T10:42:33;29.13;;;18.73;;
65461;SDS011;53236;43.666;18.444;2023-01-08T10:45:05;28.48;;;17.88;;
65461;SDS011;53236;43.666;18.444;2023-01-08T10:47:35;33.60;;;18.75;;
65461;SDS011;53236;43.666;18.444;2023-01-08T10:50:02;23.63;;;14.40;;
65461;SDS011;53236;43.666;18.444;2023-01-08T10:52:31;19.23;;;13.98;;
65461;SDS011;53236;43.666;18.444;2023-01-08T10:55:10;24.40;;;16.33;;
65461;SDS011;53236;43.666;18.444;2023-01-08T10:57:42;42.30;;;33.15;;
65461;SDS011;53236;43.666;18.444;2023-01-08T11:00:25;26.92;;;18.70;;
65461;SDS011;53236;43.666;18.444;2023-01-08T11:02:53;30.92;;;21.02;;
65461;SDS011;53236;43.666;18.444;2023-01-08T11:05:27;22.73;;;14.63;;
65461;SDS011;53236;43.666;18.444;2023-01-08T11:07:55;5.68;;;3.92;;
65461;SDS011;53236;43.666;18.444;2023-01-08T11:10:23;5.28;;;3.58;;
65461;SDS011;53236;43.666;18.444;2023-01-08T11:12:54;8.48;;;5.93;;
65461;SDS011;53236;43.666;18.444;2023-01-08T11:17:52;15.45;;;9.02;;
65461;SDS011;53236;43.666;18.444;2023-01-08T11:20:19;4.18;;;2.83;;
65461;SDS011;53236;43.666;18.444;2023-01-08T11:23:03;2.33;;;1.23;;
65461;SDS011;53236;43.666;18.444;2023-01-08T11:31:38;9.82;;;5.88;;
65461;SDS011;53236;43.666;18.444;2023-01-08T11:34:27;6.47;;;3.85;;
65461;SDS011;53236;43.666;18.444;2023-01-08T11:37:08;2.03;;;1.05;;
65461;SDS011;53236;43.666;18.444;2023-01-08T11:39:35;1.33;;;0.73;;
65461;SDS011;53236;43.666;18.444;2023-01-08T11:50:20;2.25;;;1.38;;
65461;SDS011;53236;43.666;18.444;2023-01-08T11:58:43;1.73;;;0.90;;
65461;SDS011;53236;43.666;18.444;2023-01-08T12:16:00;4.33;;;2.87;;
65461;SDS011;53236;43.666;18.444;2023-01-08T12:23:31;2.17;;;1.00;;
65461;SDS011;53236;43.666;18.444;2023-01-08T12:26:19;1.70;;;0.90;;
65461;SDS011;53236;43.666;18.444;2023-01-08T12:42:47;4.40;;;2.50;;
65461;SDS011;53236;43.666;18.444;2023-01-08T12:45:16;3.37;;;1.93;;
65461;SDS011;53236;43.666;18.444;2023-01-08T12:47:48;1.90;;;1.10;;
65461;SDS011;53236;43.666;18.444;2023-01-08T12:53:11;11.67;;;7.60;;
65461;SDS011;53236;43.666;18.444;2023-01-08T12:58:51;2.53;;;1.70;;
65461;SDS011;53236;43.666;18.444;2023-01-08T13:04:09;6.20;;;1.97;;
65461;SDS011;53236;43.666;18.444;2023-01-08T13:06:36;4.00;;;2.67;;
65461;SDS011;53236;43.666;18.444;2023-01-08T13:09:02;13.13;;;9.60;;
65461;SDS011;53236;43.666;18.444;2023-01-08T13:11:29;3.13;;;1.90;;
65461;SDS011;53236;43.666;18.444;2023-01-08T13:16:26;2.80;;;1.77;;
65461;SDS011;53236;43.666;18.444;2023-01-08T13:18:58;2.43;;;1.50;;
65461;SDS011;53236;43.666;18.444;2023-01-08T13:24:00;4.93;;;3.20;;
65461;SDS011;53236;43.666;18.444;2023-01-08T13:26:46;3.67;;;2.10;;
65461;SDS011;53236;43.666;18.444;2023-01-08T13:29:22;3.37;;;1.80;;
65461;SDS011;53236;43.666;18.444;2023-01-08T13:31:59;2.50;;;1.63;;
65461;SDS011;53236;43.666;18.444;2023-01-08T13:34:38;1.80;;;1.07;;
65461;SDS011;53236;43.666;18.444;2023-01-08T13:37:06;3.93;;;2.20;;
65461;SDS011;53236;43.666;18.444;2023-01-08T13:39:36;2.47;;;1.50;;
65461;SDS011;53236;43.666;18.444;2023-01-08T13:44:51;2.30;;;1.30;;
65461;SDS011;53236;43.666;18.444;2023-01-08T13:47:32;1.93;;;1.20;;
65461;SDS011;53236;43.666;18.444;2023-01-08T13:50:03;3.80;;;1.97;;
65461;SDS011;53236;43.666;18.444;2023-01-08T13:55:30;2.93;;;1.47;;
65461;SDS011;53236;43.666;18.444;2023-01-08T13:58:01;66.10;;;41.07;;
65461;SDS011;53236;43.666;18.444;2023-01-08T14:03:13;6.40;;;5.07;;
65461;SDS011;53236;43.666;18.444;2023-01-08T14:08:47;9.13;;;6.03;;
65461;SDS011;53236;43.666;18.444;2023-01-08T14:11:14;4.43;;;2.53;;
65461;SDS011;53236;43.666;18.444;2023-01-08T14:13:41;3.50;;;1.70;;
65461;SDS011;53236;43.666;18.444;2023-01-08T14:16:09;7.13;;;3.70;;
65461;SDS011;53236;43.666;18.444;2023-01-08T14:18:41;3.60;;;2.17;;
65461;SDS011;53236;43.666;18.444;2023-01-08T14:21:08;23.50;;;14.57;;
65461;SDS011;53236;43.666;18.444;2023-01-08T14:23:36;5.47;;;3.73;;
65461;SDS011;53236;43.666;18.444;2023-01-08T14:26:05;15.67;;;11.27;;
65461;SDS011;53236;43.666;18.444;2023-01-08T14:28:35;14.07;;;9.00;;
65461;SDS011;53236;43.666;18.444;2023-01-08T14:31:01;11.43;;;7.47;;
65461;SDS011;53236;43.666;18.444;2023-01-08T14:33:31;33.57;;;22.53;;
65461;SDS011;53236;43.666;18.444;2023-01-08T14:35:59;9.63;;;5.63;;
65461;SDS011;53236;43.666;18.444;2023-01-08T14:38:28;15.53;;;11.40;;
65461;SDS011;53236;43.666;18.444;2023-01-08T14:41:01;10.13;;;5.70;;
65461;SDS011;53236;43.666;18.444;2023-01-08T14:43:46;67.63;;;42.13;;
65461;SDS011;53236;43.666;18.444;2023-01-08T14:48:44;47.70;;;26.60;;
65461;SDS011;53236;43.666;18.444;2023-01-08T14:51:14;44.50;;;25.37;;
65461;SDS011;53236;43.666;18.444;2023-01-08T14:53:47;84.80;;;49.38;;
65461;SDS011;53236;43.666;18.444;2023-01-08T14:56:20;14.47;;;9.07;;
65461;SDS011;53236;43.666;18.444;2023-01-08T14:58:50;26.37;;;14.93;;
65461;SDS011;53236;43.666;18.444;2023-01-08T15:01:17;9.33;;;5.20;;
65461;SDS011;53236;43.666;18.444;2023-01-08T15:03:47;11.63;;;7.40;;
65461;SDS011;53236;43.666;18.444;2023-01-08T15:06:27;26.87;;;17.53;;
65461;SDS011;53236;43.666;18.444;2023-01-08T15:08:55;204.97;;;120.03;;
65461;SDS011;53236;43.666;18.444;2023-01-08T15:11:22;119.70;;;68.70;;
65461;SDS011;53236;43.666;18.444;2023-01-08T15:13:50;31.30;;;19.53;;
65461;SDS011;53236;43.666;18.444;2023-01-08T15:21:34;46.17;;;31.20;;
65461;SDS011;53236;43.666;18.444;2023-01-08T15:24:00;57.23;;;41.20;;
65461;SDS011;53236;43.666;18.444;2023-01-08T15:26:27;46.27;;;35.90;;
65461;SDS011;53236;43.666;18.444;2023-01-08T15:28:55;9.00;;;6.40;;
65461;SDS011;53236;43.666;18.444;2023-01-08T15:31:26;39.77;;;24.17;;
65461;SDS011;53236;43.666;18.444;2023-01-08T15:34:06;13.23;;;8.57;;
65461;SDS011;53236;43.666;18.444;2023-01-08T15:36:32;9.47;;;6.33;;
65461;SDS011;53236;43.666;18.444;2023-01-08T15:38:58;36.07;;;21.83;;
65461;SDS011;53236;43.666;18.444;2023-01-08T15:41:23;39.87;;;25.10;;
65461;SDS011;53236;43.666;18.444;2023-01-08T15:44:08;46.53;;;32.03;;
65461;SDS011;53236;43.666;18.444;2023-01-08T15:46:38;47.00;;;33.33;;
65461;SDS011;53236;43.666;18.444;2023-01-08T15:49:04;25.27;;;16.70;;
65461;SDS011;53236;43.666;18.444;2023-01-08T15:51:30;79.07;;;51.30;;
65461;SDS011;53236;43.666;18.444;2023-01-08T15:53:58;92.60;;;60.23;;
65461;SDS011;53236;43.666;18.444;2023-01-08T15:56:25;30.87;;;23.17;;
65461;SDS011;53236;43.666;18.444;2023-01-08T15:58:51;8.03;;;6.07;;
65461;SDS011;53236;43.666;18.444;2023-01-08T16:01:17;48.80;;;28.17;;
65461;SDS011;53236;43.666;18.444;2023-01-08T16:03:43;77.47;;;40.43;;
65461;SDS011;53236;43.666;18.444;2023-01-08T16:06:09;92.13;;;51.50;;
65461;SDS011;53236;43.666;18.444;2023-01-08T16:08:35;229.33;;;109.87;;
65461;SDS011;53236;43.666;18.444;2023-01-08T16:11:00;17.10;;;9.77;;
65461;SDS011;53236;43.666;18.444;2023-01-08T16:13:26;13.13;;;7.33;;
65461;SDS011;53236;43.666;18.444;2023-01-08T16:15:52;46.40;;;27.53;;
65461;SDS011;53236;43.666;18.444;2023-01-08T16:18:19;13.63;;;7.87;;
65461;SDS011;53236;43.666;18.444;2023-01-08T16:20:45;17.90;;;13.20;;
65461;SDS011;53236;43.666;18.444;2023-01-08T16:23:10;9.80;;;5.77;;
65461;SDS011;53236;43.666;18.444;2023-01-08T16:25:37;5.50;;;3.43;;
65461;SDS011;53236;43.666;18.444;2023-01-08T16:28:03;17.53;;;11.03;;
65461;SDS011;53236;43.666;18.444;2023-01-08T16:30:29;25.70;;;16.60;;
65461;SDS011;53236;43.666;18.444;2023-01-08T16:32:55;9.53;;;5.73;;